sensor_id;sensor_type;location;lat;lon;timestamp;pressure;altitude;pressure_sealevel;temperature;humidity
11001;BME280;5553;48.506;8.870;2023-02-23T00:02:18;96194.06;;;6.52;100.00
11001;BME280;5553;48.506;8.870;2023-02-23T00:04:47;96205.56;;;6.43;100.00
11001;BME280;5553;48.506;8.870;2023-02-23T00:07:15;96199.19;;;6.45;100.00
11001;BME280;5553;48.506;8.870;2023-02-23T04:31:21;96213.75;;;6.48;100.00
11001;BME280;5553;48.506;8.870;2023-02-23T04:33:49;96212.13;;;6.47;100.00
11001;BME280;5553;48.506;8.870;2023-02-23T04:36:18;96211.13;;;6.48;100.00
11001;BME280;5553;48.506;8.870;2023-02-23T04:38:46;96215.09;;;6.44;100.00
11001;BME280;5553;48.506;8.870;2023-02-23T04:41:15;96213.06;;;6.54;100.00
11001;BME280;5553;48.506;8.870;2023-02-23T04:43:44;96212.59;;;6.50;100.00
11001;BME280;5553;48.506;8.870;2023-02-23T04:46:12;96208.97;;;6.51;100.00
11001;BME280;5553;48.506;8.870;2023-02-23T04:48:43;96204.75;;;6.42;100.00
11001;BME280;5553;48.506;8.870;2023-02-23T04:51:11;96212.75;;;6.49;100.00
11001;BME280;5553;48.506;8.870;2023-02-23T04:53:40;96205.81;;;6.33;100.00
11001;BME280;5553;48.506;8.870;2023-02-23T04:56:08;96207.78;;;6.31;100.00
11001;BME280;5553;48.506;8.870;2023-02-23T04:58:36;96209.88;;;6.35;100.00
11001;BME280;5553;48.506;8.870;2023-02-23T05:01:05;96211.00;;;6.41;100.00
11001;BME280;5553;48.506;8.870;2023-02-23T05:03:34;96211.00;;;6.41;100.00
11001;BME280;5553;48.506;8.870;2023-02-23T05:06:05;96214.66;;;6.32;100.00
11001;BME280;5553;48.506;8.870;2023-02-23T05:08:33;96219.13;;;6.23;100.00
11001;BME280;5553;48.506;8.870;2023-02-23T05:11:01;96213.38;;;6.28;100.00
11001;BME280;5553;48.506;8.870;2023-02-23T05:13:29;96208.13;;;6.28;100.00
11001;BME280;5553;48.506;8.870;2023-02-23T05:15:58;96210.13;;;6.26;100.00
11001;BME280;5553;48.506;8.870;2023-02-23T05:18:26;96221.47;;;6.10;100.00
11001;BME280;5553;48.506;8.870;2023-02-23T05:21:01;96228.69;;;6.08;100.00
11001;BME280;5553;48.506;8.870;2023-02-23T05:23:33;96231.81;;;6.03;100.00
11001;BME280;5553;48.506;8.870;2023-02-23T05:26:02;96225.91;;;6.09;100.00
11001;BME280;5553;48.506;8.870;2023-02-23T05:28:31;96239.22;;;6.31;100.00
11001;BME280;5553;48.506;8.870;2023-02-23T05:31:01;96225.47;;;6.29;100.00
11001;BME280;5553;48.506;8.870;2023-02-23T05:33:30;96226.44;;;6.36;100.00
11001;BME280;5553;48.506;8.870;2023-02-23T05:35:59;96219.25;;;5.99;100.00
11001;BME280;5553;48.506;8.870;2023-02-23T05:38:33;96223.47;;;6.00;100.00
11001;BME280;5553;48.506;8.870;2023-02-23T05:41:04;96227.72;;;6.01;100.00
11001;BME280;5553;48.506;8.870;2023-02-23T05:43:33;96225.75;;;6.03;100.00
11001;BME280;5553;48.506;8.870;2023-02-23T05:46:05;96224.00;;;5.79;100.00
11001;BME280;5553;48.506;8.870;2023-02-23T05:48:33;96222.53;;;5.76;100.00
11001;BME280;5553;48.506;8.870;2023-02-23T05:51:02;96227.78;;;5.76;100.00
11001;BME280;5553;48.506;8.870;2023-02-23T05:53:34;96238.06;;;5.78;100.00
11001;BME280;5553;48.506;8.870;2023-02-23T05:56:04;96242.16;;;5.88;100.00
11001;BME280;5553;48.506;8.870;2023-02-23T05:58:33;96239.19;;;5.91;100.00
11001;BME280;5553;48.506;8.870;2023-02-23T06:01:02;96241.66;;;5.93;100.00
11001;BME280;5553;48.506;8.870;2023-02-23T06:03:30;96239.53;;;5.97;100.00
11001;BME280;5553;48.506;8.870;2023-02-23T06:05:58;96243.94;;;5.96;100.00
11001;BME280;5553;48.506;8.870;2023-02-23T06:08:27;96247.22;;;5.90;100.00
11001;BME280;5553;48.506;8.870;2023-02-23T06:10:57;96254.59;;;5.86;100.00
11001;BME280;5553;48.506;8.870;2023-02-23T06:13:26;96256.38;;;5.86;100.00
11001;BME280;5553;48.506;8.870;2023-02-23T06:15:54;96263.91;;;5.89;100.00
11001;BME280;5553;48.506;8.870;2023-02-23T06:18:23;96263.59;;;5.84;100.00
11001;BME280;5553;48.506;8.870;2023-02-23T06:20:51;96260.47;;;5.80;100.00
11001;BME280;5553;48.506;8.870;2023-02-23T06:23:20;96263.09;;;5.80;100.00
11001;BME280;5553;48.506;8.870;2023-02-23T06:25:48;96266.22;;;5.76;100.00
11001;BME280;5553;48.506;8.870;2023-02-23T06:28:19;96269.53;;;5.61;100.00
11001;BME280;5553;48.506;8.870;2023-02-23T06:30:50;96271.19;;;5.54;100.00
11001;BME280;5553;48.506;8.870;2023-02-23T06:33:19;96273.47;;;5.57;100.00
11001;BME280;5553;48.506;8.870;2023-02-23T06:35:47;96271.34;;;5.53;100.00
11001;BME280;5553;48.506;8.870;2023-02-23T06:38:15;96283.63;;;5.44;100.00
11001;BME280;5553;48.506;8.870;2023-02-23T06:40:44;96296.38;;;5.47;100.00
11001;BME280;5553;48.506;8.870;2023-02-23T06:43:13;96297.34;;;5.54;100.00
11001;BME280;5553;48.506;8.870;2023-02-23T06:45:45;96300.63;;;5.48;100.00
11001;BME280;5553;48.506;8.870;2023-02-23T06:48:13;96303.06;;;5.50;100.00
11001;BME280;5553;48.506;8.870;2023-02-23T06:50:42;96315.69;;;5.54;100.00
11001;BME280;5553;48.506;8.870;2023-02-23T06:53:10;96317.59;;;5.60;100.00
11001;BME280;5553;48.506;8.870;2023-02-23T06:55:38;96320.06;;;5.62;100.00
11001;BME280;5553;48.506;8.870;2023-02-23T06:58:07;96328.75;;;5.62;100.00
11001;BME280;5553;48.506;8.870;2023-02-23T07:00:35;96322.19;;;5.66;100.00
11001;BME280;5553;48.506;8.870;2023-02-23T07:03:09;96319.56;;;5.66;100.00
11001;BME280;5553;48.506;8.870;2023-02-23T07:05:38;96326.78;;;5.73;100.00
11001;BME280;5553;48.506;8.870;2023-02-23T07:08:06;96328.41;;;5.82;100.00
11001;BME280;5553;48.506;8.870;2023-02-23T07:10:34;96329.69;;;5.86;100.00
11001;BME280;5553;48.506;8.870;2023-02-23T07:13:03;96327.91;;;5.94;100.00
11001;BME280;5553;48.506;8.870;2023-02-23T07:15:31;96335.56;;;6.04;100.00
11001;BME280;5553;48.506;8.870;2023-02-23T07:17:59;96327.53;;;6.14;100.00
11001;BME280;5553;48.506;8.870;2023-02-23T07:20:30;96334.72;;;6.20;100.00
11001;BME280;5553;48.506;8.870;2023-02-23T07:22:58;96327.84;;;6.27;100.00
11001;BME280;5553;48.506;8.870;2023-02-23T07:25:28;96338.13;;;6.37;100.00
11001;BME280;5553;48.506;8.870;2023-02-23T07:27:56;96341.03;;;6.42;100.00
11001;BME280;5553;48.506;8.870;2023-02-23T07:30:25;96351.81;;;6.55;100.00
11001;BME280;5553;48.506;8.870;2023-02-23T07:32:53;96341.78;;;6.59;100.00
11001;BME280;5553;48.506;8.870;2023-02-23T07:35:21;96334.72;;;6.68;100.00
11001;BME280;5553;48.506;8.870;2023-02-23T07:37:52;96333.25;;;6.65;100.00
11001;BME280;5553;48.506;8.870;2023-02-23T07:40:21;96328.44;;;6.77;100.00
11001;BME280;5553;48.506;8.870;2023-02-23T07:42:49;96320.34;;;6.55;100.00
11001;BME280;5553;48.506;8.870;2023-02-23T07:45:18;96321.38;;;6.46;100.00
11001;BME280;5553;48.506;8.870;2023-02-23T07:47:47;96320.72;;;6.44;100.00
11001;BME280;5553;48.506;8.870;2023-02-23T07:50:16;96326.06;;;6.59;100.00
11001;BME280;5553;48.506;8.870;2023-02-23T07:52:44;96319.25;;;6.81;100.00
11001;BME280;5553;48.506;8.870;2023-02-23T07:55:15;96325.09;;;6.91;100.00
11001;BME280;5553;48.506;8.870;2023-02-23T07:57:43;96314.16;;;6.87;100.00
11001;BME280;5553;48.506;8.870;2023-02-23T08:00:12;96312.94;;;6.98;100.00
11001;BME280;5553;48.506;8.870;2023-02-23T08:02:41;96313.28;;;6.95;100.00
11001;BME280;5553;48.506;8.870;2023-02-23T08:05:09;96312.94;;;6.98;100.00
11001;BME280;5553;48.506;8.870;2023-02-23T08:07:37;96315.44;;;7.15;100.00
11001;BME280;5553;48.506;8.870;2023-02-23T08:10:07;96320.97;;;7.20;100.00
11001;BME280;5553;48.506;8.870;2023-02-23T08:12:38;96312.44;;;7.18;100.00
11001;BME280;5553;48.506;8.870;2023-02-23T08:15:07;96312.75;;;7.23;100.00
11001;BME280;5553;48.506;8.870;2023-02-23T08:17:37;96295.66;;;7.27;100.00
11001;BME280;5553;48.506;8.870;2023-02-23T08:20:07;96298.63;;;7.24;100.00
11001;BME280;5553;48.506;8.870;2023-02-23T08:22:36;96291.75;;;7.23;100.00
11001;BME280;5553;48.506;8.870;2023-02-23T08:25:05;96294.19;;;7.24;100.00
11001;BME280;5553;48.506;8.870;2023-02-23T08:27:34;96282.00;;;7.31;100.00
11001;BME280;5553;48.506;8.870;2023-02-23T08:30:05;96281.16;;;7.39;100.00
11001;BME280;5553;48.506;8.870;2023-02-23T08:32:34;96285.75;;;7.37;100.00
11001;BME280;5553;48.506;8.870;2023-02-23T08:35:03;96284.03;;;7.44;100.00
11001;BME280;5553;48.506;8.870;2023-02-23T08:37:32;96280.25;;;7.47;100.00
11001;BME280;5553;48.506;8.870;2023-02-23T08:40:00;96272.28;;;7.55;100.00
11001;BME280;5553;48.506;8.870;2023-02-23T08:42:28;96267.25;;;7.53;100.00
11001;BME280;5553;48.506;8.870;2023-02-23T08:44:57;96272.25;;;7.63;100.00
11001;BME280;5553;48.506;8.870;2023-02-23T08:47:28;96265.72;;;7.74;100.00
11001;BME280;5553;48.506;8.870;2023-02-23T08:49:58;96265.63;;;7.82;100.00
11001;BME280;5553;48.506;8.870;2023-02-23T08:52:26;96268.09;;;7.98;100.00
11001;BME280;5553;48.506;8.870;2023-02-23T08:54:55;96255.50;;;8.08;100.00
11001;BME280;5553;48.506;8.870;2023-02-23T08:57:23;96251.97;;;8.31;100.00
11001;BME280;5553;48.506;8.870;2023-02-23T08:59:51;96247.69;;;8.30;100.00
11001;BME280;5553;48.506;8.870;2023-02-23T09:02:19;96241.09;;;8.49;100.00
11001;BME280;5553;48.506;8.870;2023-02-23T09:04:51;96238.00;;;8.45;100.00
11001;BME280;5553;48.506;8.870;2023-02-23T09:07:21;96242.25;;;8.46;100.00
11001;BME280;5553;48.506;8.870;2023-02-23T09:09:53;96239.38;;;8.41;100.00
11001;BME280;5553;48.506;8.870;2023-02-23T09:12:21;96241.97;;;8.56;100.00
11001;BME280;5553;48.506;8.870;2023-02-23T09:14:50;96239.16;;;8.58;100.00
11001;BME280;5553;48.506;8.870;2023-02-23T09:17:18;96230.97;;;8.67;100.00
11001;BME280;5553;48.506;8.870;2023-02-23T09:19:47;96230.88;;;8.75;100.00
11001;BME280;5553;48.506;8.870;2023-02-23T09:22:18;96221.03;;;8.84;100.00
11001;BME280;5553;48.506;8.870;2023-02-23T09:24:46;96220.09;;;9.13;100.00
11001;BME280;5553;48.506;8.870;2023-02-23T09:27:14;96211.09;;;9.51;100.00
11001;BME280;5553;48.506;8.870;2023-02-23T09:29:42;96207.66;;;9.57;100.00
11001;BME280;5553;48.506;8.870;2023-02-23T09:32:11;96205.66;;;9.59;100.00
11001;BME280;5553;48.506;8.870;2023-02-23T09:34:39;96209.09;;;9.31;100.00
11001;BME280;5553;48.506;8.870;2023-02-23T09:37:07;96206.03;;;9.56;100.00
11001;BME280;5553;48.506;8.870;2023-02-23T09:39:38;96200.03;;;10.38;100.00
11001;BME280;5553;48.506;8.870;2023-02-23T09:42:26;96189.72;;;10.02;100.00
11001;BME280;5553;48.506;8.870;2023-02-23T09:45:11;96188.75;;;10.64;100.00
11001;BME280;5553;48.506;8.870;2023-02-23T09:47:52;96172.84;;;10.37;100.00
11001;BME280;5553;48.506;8.870;2023-02-23T09:50:26;96170.47;;;11.75;100.00
11001;BME280;5553;48.506;8.870;2023-02-23T09:52:58;96165.56;;;11.92;100.00
11001;BME280;5553;48.506;8.870;2023-02-23T09:55:31;96159.97;;;10.96;100.00
11001;BME280;5553;48.506;8.870;2023-02-23T09:58:04;96159.75;;;11.30;100.00
11001;BME280;5553;48.506;8.870;2023-02-23T10:00:36;96164.00;;;11.51;100.00
11001;BME280;5553;48.506;8.870;2023-02-23T10:03:15;96151.44;;;11.33;100.00
11001;BME280;5553;48.506;8.870;2023-02-23T10:05:46;96153.50;;;11.25;100.00
11001;BME280;5553;48.506;8.870;2023-02-23T10:08:24;96154.09;;;11.20;100.00
11001;BME280;5553;48.506;8.870;2023-02-23T10:11:07;96157.97;;;11.04;100.00
11001;BME280;5553;48.506;8.870;2023-02-23T10:13:45;96153.63;;;11.76;100.00
11001;BME280;5553;48.506;8.870;2023-02-23T10:16:21;96148.38;;;11.36;100.00
11001;BME280;5553;48.506;8.870;2023-02-23T10:18:57;96160.78;;;11.16;100.00
11001;BME280;5553;48.506;8.870;2023-02-23T10:21:32;96163.59;;;11.54;100.00
11001;BME280;5553;48.506;8.870;2023-02-23T10:24:05;96157.53;;;11.41;100.00
11001;BME280;5553;48.506;8.870;2023-02-23T10:26:43;96158.72;;;11.45;100.00
11001;BME280;5553;48.506;8.870;2023-02-23T10:29:20;96158.81;;;12.54;100.00
11001;BME280;5553;48.506;8.870;2023-02-23T10:31:53;96134.50;;;12.32;100.00
11001;BME280;5553;48.506;8.870;2023-02-23T10:34:26;96107.63;;;13.86;100.00
11001;BME280;5553;48.506;8.870;2023-02-23T10:36:57;96081.63;;;12.89;100.00
11001;BME280;5553;48.506;8.870;2023-02-23T10:39:27;96098.44;;;12.76;100.00
11001;BME280;5553;48.506;8.870;2023-02-23T10:42:01;96099.53;;;13.44;100.00
11001;BME280;5553;48.506;8.870;2023-02-23T10:44:32;96108.34;;;13.56;100.00
11001;BME280;5553;48.506;8.870;2023-02-23T10:47:02;96091.56;;;12.94;100.00
11001;BME280;5553;48.506;8.870;2023-02-23T10:49:39;96093.66;;;12.60;100.00
11001;BME280;5553;48.506;8.870;2023-02-23T10:52:10;96117.59;;;13.22;100.00
11001;BME280;5553;48.506;8.870;2023-02-23T10:54:42;96091.19;;;13.15;99.53
11001;BME280;5553;48.506;8.870;2023-02-23T10:57:20;96106.88;;;13.42;100.00
11001;BME280;5553;48.506;8.870;2023-02-23T11:00:07;96092.75;;;12.98;98.71
11001;BME280;5553;48.506;8.870;2023-02-23T11:02:36;96079.19;;;12.88;97.52
11001;BME280;5553;48.506;8.870;2023-02-23T11:05:08;96102.69;;;13.52;100.00
11001;BME280;5553;48.506;8.870;2023-02-23T11:08:08;96086.75;;;13.09;98.01
11001;BME280;5553;48.506;8.870;2023-02-23T11:10:36;96083.50;;;12.57;97.64
11001;BME280;5553;48.506;8.870;2023-02-23T11:13:20;96069.88;;;12.78;96.17
11001;BME280;5553;48.506;8.870;2023-02-23T11:15:57;96085.13;;;13.33;96.97
11001;BME280;5553;48.506;8.870;2023-02-23T11:18:26;96080.53;;;12.40;97.87
11001;BME280;5553;48.506;8.870;2023-02-23T11:20:55;96088.06;;;12.43;97.07
11001;BME280;5553;48.506;8.870;2023-02-23T11:23:26;96091.25;;;12.84;99.95
11001;BME280;5553;48.506;8.870;2023-02-23T11:25:57;96093.03;;;12.90;100.00
11001;BME280;5553;48.506;8.870;2023-02-23T11:28:32;96077.22;;;12.13;98.45
11001;BME280;5553;48.506;8.870;2023-02-23T11:31:03;96090.56;;;12.63;100.00
11001;BME280;5553;48.506;8.870;2023-02-23T11:33:37;96077.38;;;12.25;99.21
11001;BME280;5553;48.506;8.870;2023-02-23T11:36:16;96082.38;;;12.40;100.00
11001;BME280;5553;48.506;8.870;2023-02-23T11:38:45;96082.50;;;11.55;100.00
11001;BME280;5553;48.506;8.870;2023-02-23T11:41:19;96095.75;;;12.13;100.00
11001;BME280;5553;48.506;8.870;2023-02-23T11:43:56;96075.50;;;11.94;100.00
11001;BME280;5553;48.506;8.870;2023-02-23T11:46:28;96078.63;;;12.22;100.00
11001;BME280;5553;48.506;8.870;2023-02-23T11:48:59;96067.44;;;11.69;100.00
11001;BME280;5553;48.506;8.870;2023-02-23T11:51:30;96066.84;;;11.67;100.00
11001;BME280;5553;48.506;8.870;2023-02-23T11:54:01;96073.28;;;11.91;100.00
11001;BME280;5553;48.506;8.870;2023-02-23T11:56:32;96071.50;;;11.71;100.00
11001;BME280;5553;48.506;8.870;2023-02-23T11:59:06;96077.13;;;12.33;100.00
11001;BME280;5553;48.506;8.870;2023-02-23T12:01:44;96077.13;;;12.33;100.00
11001;BME280;5553;48.506;8.870;2023-02-23T12:04:27;96081.84;;;12.31;100.00
11001;BME280;5553;48.506;8.870;2023-02-23T12:07:30;96073.66;;;12.01;100.00
11001;BME280;5553;48.506;8.870;2023-02-23T12:10:09;96077.34;;;12.31;100.00
11001;BME280;5553;48.506;8.870;2023-02-23T12:12:45;96081.00;;;12.30;100.00
11001;BME280;5553;48.506;8.870;2023-02-23T12:15:25;96075.56;;;12.25;100.00
11001;BME280;5553;48.506;8.870;2023-02-23T12:17:59;96074.88;;;12.37;100.00
11001;BME280;5553;48.506;8.870;2023-02-23T12:20:31;96062.03;;;12.02;100.00
11001;BME280;5553;48.506;8.870;2023-02-23T12:23:05;96061.88;;;11.97;100.00
11001;BME280;5553;48.506;8.870;2023-02-23T12:25:38;96061.72;;;12.23;100.00
11001;BME280;5553;48.506;8.870;2023-02-23T12:28:12;96053.34;;;11.81;100.00
11001;BME280;5553;48.506;8.870;2023-02-23T12:30:49;96036.56;;;11.69;97.87
11001;BME280;5553;48.506;8.870;2023-02-23T12:33:23;96020.59;;;11.96;94.70
11001;BME280;5553;48.506;8.870;2023-02-23T12:36:01;96021.66;;;11.81;95.15
11001;BME280;5553;48.506;8.870;2023-02-23T12:38:42;96022.50;;;11.69;95.95
11001;BME280;5553;48.506;8.870;2023-02-23T12:41:16;96024.91;;;11.83;94.59
11001;BME280;5553;48.506;8.870;2023-02-23T12:43:47;96014.94;;;11.85;94.52
11001;BME280;5553;48.506;8.870;2023-02-23T12:46:21;96012.13;;;11.74;93.73
11001;BME280;5553;48.506;8.870;2023-02-23T12:49:00;96022.47;;;11.75;94.94
11001;BME280;5553;48.506;8.870;2023-02-23T12:51:33;96020.41;;;11.91;94.98
11001;BME280;5553;48.506;8.870;2023-02-23T12:54:03;96012.28;;;11.85;94.64
11001;BME280;5553;48.506;8.870;2023-02-23T12:56:53;96022.19;;;12.03;94.58
11001;BME280;5553;48.506;8.870;2023-02-23T12:59:55;96026.25;;;11.99;96.89
11001;BME280;5553;48.506;8.870;2023-02-23T13:02:38;96027.53;;;11.83;96.83
11001;BME280;5553;48.506;8.870;2023-02-23T13:05:21;96015.31;;;11.89;95.75
11001;BME280;5553;48.506;8.870;2023-02-23T13:07:58;96010.03;;;11.82;94.39
11001;BME280;5553;48.506;8.870;2023-02-23T13:10:33;95998.31;;;11.72;93.59
11001;BME280;5553;48.506;8.870;2023-02-23T13:13:21;96011.88;;;11.82;95.47
11001;BME280;5553;48.506;8.870;2023-02-23T13:15:59;96022.81;;;11.99;96.29
11001;BME280;5553;48.506;8.870;2023-02-23T13:18:34;96008.69;;;11.73;95.31
11001;BME280;5553;48.506;8.870;2023-02-23T13:21:08;96006.22;;;11.78;94.23
11001;BME280;5553;48.506;8.870;2023-02-23T13:23:41;96007.41;;;11.82;94.10
11001;BME280;5553;48.506;8.870;2023-02-23T13:26:22;96023.28;;;11.76;96.87
11001;BME280;5553;48.506;8.870;2023-02-23T13:28:58;96013.63;;;11.56;96.27
11001;BME280;5553;48.506;8.870;2023-02-23T13:31:31;96009.97;;;11.51;95.05
11001;BME280;5553;48.506;8.870;2023-02-23T13:34:05;96025.63;;;11.59;96.89
11001;BME280;5553;48.506;8.870;2023-02-23T13:36:37;96019.75;;;11.44;97.37
11001;BME280;5553;48.506;8.870;2023-02-23T13:45:11;96020.78;;;11.43;98.77
11001;BME280;5553;48.506;8.870;2023-02-23T13:47:48;96037.63;;;11.48;100.00
11001;BME280;5553;48.506;8.870;2023-02-23T13:50:23;96048.75;;;11.63;100.00
11001;BME280;5553;48.506;8.870;2023-02-23T13:52:59;96049.88;;;11.36;100.00
11001;BME280;5553;48.506;8.870;2023-02-23T13:55:36;96060.03;;;11.32;100.00
11001;BME280;5553;48.506;8.870;2023-02-23T13:58:10;96054.72;;;11.39;100.00
11001;BME280;5553;48.506;8.870;2023-02-23T14:00:41;96053.28;;;11.50;100.00
11001;BME280;5553;48.506;8.870;2023-02-23T14:03:21;96042.34;;;11.39;100.00
11001;BME280;5553;48.506;8.870;2023-02-23T14:05:55;96046.13;;;11.63;100.00
11001;BME280;5553;48.506;8.870;2023-02-23T14:08:29;96047.44;;;11.93;100.00
11001;BME280;5553;48.506;8.870;2023-02-23T14:11:00;96038.25;;;12.02;100.00
11001;BME280;5553;48.506;8.870;2023-02-23T14:13:30;96029.84;;;12.12;100.00
11001;BME280;5553;48.506;8.870;2023-02-23T14:16:16;96033.38;;;12.30;100.00
11001;BME280;5553;48.506;8.870;2023-02-23T14:21:57;96047.84;;;12.35;100.00
11001;BME280;5553;48.506;8.870;2023-02-23T14:24:26;96047.28;;;12.51;100.00
11001;BME280;5553;48.506;8.870;2023-02-23T14:27:17;96040.44;;;12.43;100.00
11001;BME280;5553;48.506;8.870;2023-02-23T14:30:06;96032.03;;;12.21;100.00
11001;BME280;5553;48.506;8.870;2023-02-23T14:32:40;96034.06;;;12.19;100.00
11001;BME280;5553;48.506;8.870;2023-02-23T14:35:37;96032.53;;;12.37;100.00
11001;BME280;5553;48.506;8.870;2023-02-23T14:38:21;96026.34;;;12.74;100.00
11001;BME280;5553;48.506;8.870;2023-02-23T14:40:53;96008.13;;;13.10;100.00
11001;BME280;5553;48.506;8.870;2023-02-23T14:43:38;96008.09;;;12.91;100.00
11001;BME280;5553;48.506;8.870;2023-02-23T14:46:11;96011.28;;;12.75;100.00
11001;BME280;5553;48.506;8.870;2023-02-23T14:48:43;96010.38;;;12.88;100.00
11001;BME280;5553;48.506;8.870;2023-02-23T14:51:19;96020.63;;;12.52;100.00
11001;BME280;5553;48.506;8.870;2023-02-23T14:53:50;96012.13;;;12.44;100.00
11001;BME280;5553;48.506;8.870;2023-02-23T14:56:21;96021.16;;;12.36;100.00
11001;BME280;5553;48.506;8.870;2023-02-23T14:58:51;96025.69;;;12.54;100.00
11001;BME280;5553;48.506;8.870;2023-02-23T15:01:33;96023.91;;;12.16;100.00
11001;BME280;5553;48.506;8.870;2023-02-23T15:04:08;96014.53;;;12.20;100.00
11001;BME280;5553;48.506;8.870;2023-02-23T15:06:38;96029.13;;;11.98;100.00
11001;BME280;5553;48.506;8.870;2023-02-23T15:09:24;96033.22;;;11.94;100.00
11001;BME280;5553;48.506;8.870;2023-02-23T15:11:58;96027.41;;;11.65;100.00
11001;BME280;5553;48.506;8.870;2023-02-23T15:14:29;96032.81;;;11.90;100.00
11001;BME280;5553;48.506;8.870;2023-02-23T15:17:00;96031.03;;;11.84;100.00
11001;BME280;5553;48.506;8.870;2023-02-23T15:19:32;96029.56;;;11.81;100.00
11001;BME280;5553;48.506;8.870;2023-02-23T15:22:04;96032.09;;;11.63;100.00
11001;BME280;5553;48.506;8.870;2023-02-23T15:24:43;96035.63;;;11.44;100.00
11001;BME280;5553;48.506;8.870;2023-02-23T15:27:17;96038.09;;;11.32;100.00
11001;BME280;5553;48.506;8.870;2023-02-23T15:29:47;96046.22;;;11.30;100.00
11001;BME280;5553;48.506;8.870;2023-02-23T15:32:21;96049.09;;;11.22;100.00
11001;BME280;5553;48.506;8.870;2023-02-23T15:34:50;96044.63;;;11.03;100.00
11001;BME280;5553;48.506;8.870;2023-02-23T15:37:26;96046.47;;;11.09;100.00
11001;BME280;5553;48.506;8.870;2023-02-23T15:40:00;96049.09;;;11.15;100.00
11001;BME280;5553;48.506;8.870;2023-02-23T15:42:34;96049.34;;;10.94;100.00
11001;BME280;5553;48.506;8.870;2023-02-23T15:45:13;96058.06;;;10.95;100.00
11001;BME280;5553;48.506;8.870;2023-02-23T15:47:44;96050.94;;;11.02;100.00
11001;BME280;5553;48.506;8.870;2023-02-23T15:50:15;96064.94;;;11.02;100.00
11001;BME280;5553;48.506;8.870;2023-02-23T15:52:47;96066.97;;;11.00;100.00
11001;BME280;5553;48.506;8.870;2023-02-23T15:55:24;96070.84;;;10.91;100.00
11001;BME280;5553;48.506;8.870;2023-02-23T15:57:56;96077.53;;;10.94;100.00
11001;BME280;5553;48.506;8.870;2023-02-23T16:00:29;96070.22;;;10.76;100.00
11001;BME280;5553;48.506;8.870;2023-02-23T16:03:00;96075.91;;;10.73;100.00
11001;BME280;5553;48.506;8.870;2023-02-23T16:05:31;96075.09;;;10.52;100.00
11001;BME280;5553;48.506;8.870;2023-02-23T16:08:05;96084.03;;;10.58;100.00
11001;BME280;5553;48.506;8.870;2023-02-23T16:10:45;96076.53;;;10.61;100.00
11001;BME280;5553;48.506;8.870;2023-02-23T16:13:17;96075.31;;;10.64;100.00
11001;BME280;5553;48.506;8.870;2023-02-23T16:15:48;96082.38;;;10.43;100.00
11001;BME280;5553;48.506;8.870;2023-02-23T16:18:18;96074.25;;;10.45;100.00
11001;BME280;5553;48.506;8.870;2023-02-23T16:20:49;96077.72;;;10.59;100.00
11001;BME280;5553;48.506;8.870;2023-02-23T16:23:26;96072.41;;;10.39;100.00
11001;BME280;5553;48.506;8.870;2023-02-23T16:26:00;96075.88;;;10.33;100.00
11001;BME280;5553;48.506;8.870;2023-02-23T16:28:32;96074.19;;;10.25;100.00
11001;BME280;5553;48.506;8.870;2023-02-23T16:31:03;96086.03;;;10.29;100.00
11001;BME280;5553;48.506;8.870;2023-02-23T16:33:41;96084.53;;;10.20;100.00
11001;BME280;5553;48.506;8.870;2023-02-23T16:36:19;96078.44;;;10.19;100.00
11001;BME280;5553;48.506;8.870;2023-02-23T16:38:58;96073.13;;;10.00;100.00
11001;BME280;5553;48.506;8.870;2023-02-23T16:41:30;96086.28;;;9.93;100.00
11001;BME280;5553;48.506;8.870;2023-02-23T16:44:00;96076.53;;;9.93;100.00
11001;BME280;5553;48.506;8.870;2023-02-23T16:46:31;96076.66;;;9.72;100.00
11001;BME280;5553;48.506;8.870;2023-02-23T16:49:02;96076.88;;;9.77;100.00
11001;BME280;5553;48.506;8.870;2023-02-23T16:51:35;96079.50;;;9.77;100.00
11001;BME280;5553;48.506;8.870;2023-02-23T16:54:03;96083.72;;;9.65;100.00
11001;BME280;5553;48.506;8.870;2023-02-23T16:56:37;96093.19;;;9.53;100.00
11001;BME280;5553;48.506;8.870;2023-02-23T16:59:13;96092.63;;;9.57;100.00
11001;BME280;5553;48.506;8.870;2023-02-23T17:01:42;96093.16;;;9.46;100.00
11001;BME280;5553;48.506;8.870;2023-02-23T17:04:12;96089.41;;;9.27;100.00
11001;BME280;5553;48.506;8.870;2023-02-23T17:06:44;96097.06;;;9.22;100.00
11001;BME280;5553;48.506;8.870;2023-02-23T17:09:20;96107.44;;;9.30;100.00
11001;BME280;5553;48.506;8.870;2023-02-23T17:11:50;96104.78;;;9.23;100.00
11001;BME280;5553;48.506;8.870;2023-02-23T17:14:23;96113.84;;;9.21;100.00
11001;BME280;5553;48.506;8.870;2023-02-23T17:16:52;96116.19;;;9.09;100.00
11001;BME280;5553;48.506;8.870;2023-02-23T17:19:20;96114.41;;;9.10;100.00
11001;BME280;5553;48.506;8.870;2023-02-23T17:21:49;96123.28;;;9.09;100.00
11001;BME280;5553;48.506;8.870;2023-02-23T17:24:17;96121.81;;;8.99;100.00
11001;BME280;5553;48.506;8.870;2023-02-23T17:26:53;96118.97;;;9.01;100.00
11001;BME280;5553;48.506;8.870;2023-02-23T17:29:21;96117.72;;;8.97;100.00
11001;BME280;5553;48.506;8.870;2023-02-23T17:31:50;96119.56;;;8.96;100.00
11001;BME280;5553;48.506;8.870;2023-02-23T17:34:18;96115.84;;;8.91;100.00
11001;BME280;5553;48.506;8.870;2023-02-23T17:36:47;96125.19;;;8.93;100.00
11001;BME280;5553;48.506;8.870;2023-02-23T17:39:16;96116.44;;;8.86;100.00
11001;BME280;5553;48.506;8.870;2023-02-23T17:41:44;96118.00;;;8.81;100.00
11001;BME280;5553;48.506;8.870;2023-02-23T17:44:15;96118.44;;;8.84;100.00
11001;BME280;5553;48.506;8.870;2023-02-23T17:46:44;96118.31;;;8.71;100.00
11001;BME280;5553;48.506;8.870;2023-02-23T17:49:12;96124.16;;;8.66;100.00
11001;BME280;5553;48.506;8.870;2023-02-23T17:51:41;96118.69;;;8.68;100.00
11001;BME280;5553;48.506;8.870;2023-02-23T17:54:09;96118.63;;;8.61;100.00
11001;BME280;5553;48.506;8.870;2023-02-23T17:56:38;96126.50;;;8.61;100.00
11001;BME280;5553;48.506;8.870;2023-02-23T17:59:07;96129.59;;;8.65;100.00
11001;BME280;5553;48.506;8.870;2023-02-23T18:01:41;96131.03;;;8.67;100.00
11001;BME280;5553;48.506;8.870;2023-02-23T18:04:09;96134.84;;;8.65;100.00
11001;BME280;5553;48.506;8.870;2023-02-23T18:06:40;96133.59;;;8.61;100.00